createdAt,value
2018-02-09T00:01:21.316Z,11.18
2018-02-09T00:03:56.955Z,10.95
2018-02-09T00:06:27.452Z,12.05
2018-02-09T00:08:58.736Z,11.00
2018-02-09T00:11:29.952Z,11.32
2018-02-09T00:14:03.657Z,10.05
2018-02-09T00:16:34.634Z,10.40
2018-02-09T00:19:05.764Z,10.40
2018-02-09T00:21:36.066Z,11.35
2018-02-09T00:24:06.471Z,11.27
2018-02-09T00:26:36.762Z,11.57
2018-02-09T00:29:07.773Z,11.98
2018-02-09T00:31:37.995Z,11.07
2018-02-09T00:34:08.271Z,11.30
2018-02-09T00:36:39.255Z,11.43
2018-02-09T00:39:09.503Z,11.52
2018-02-09T00:41:40.655Z,10.27
2018-02-09T00:44:12.128Z,10.73
2018-02-09T00:46:42.428Z,11.68
2018-02-09T00:49:13.516Z,10.98
2018-02-09T00:51:44.562Z,11.57
2018-02-09T00:54:14.927Z,10.90
2018-02-09T00:56:45.902Z,10.40
2018-02-09T00:59:16.303Z,11.32
2018-02-09T01:01:47.718Z,11.90
2018-02-09T01:04:18.037Z,11.90
2018-02-09T01:06:48.576Z,12.25
2018-02-09T01:09:19.091Z,11.75
2018-02-09T01:13:08.593Z,10.85
2018-02-09T01:15:39.824Z,10.95
2018-02-09T01:18:10.061Z,12.82
2018-02-09T01:20:40.700Z,12.48
2018-02-09T01:23:11.842Z,11.50
2018-02-09T01:25:42.828Z,12.55
2018-02-09T01:28:13.417Z,12.60
2018-02-09T01:30:44.522Z,12.07
2018-02-09T01:33:14.810Z,12.93
2018-02-09T01:35:45.034Z,13.93
2018-02-09T01:38:16.009Z,13.90
2018-02-09T01:40:46.387Z,13.32
2018-02-09T01:43:16.753Z,13.48
2018-02-09T01:45:48.232Z,13.88
2018-02-09T01:48:19.248Z,14.05
2018-02-09T01:50:49.396Z,13.00
2018-02-09T01:53:19.487Z,13.20
2018-02-09T01:55:49.675Z,13.82
2018-02-09T01:58:19.663Z,12.82
2018-02-09T02:00:50.506Z,13.93
2018-02-09T02:03:21.807Z,13.73
2018-02-09T02:05:52.250Z,13.65
2018-02-09T02:08:22.811Z,14.13
2018-02-09T02:10:53.861Z,15.20
2018-02-09T02:13:24.704Z,15.02
2018-02-09T02:15:55.056Z,14.20
2018-02-09T02:18:25.206Z,15.65
2018-02-09T02:20:55.452Z,14.40
2018-02-09T02:23:26.046Z,16.15
2018-02-09T02:25:56.409Z,15.57
2018-02-09T02:28:27.392Z,16.65
2018-02-09T02:31:00.142Z,15.45
2018-02-09T02:33:31.771Z,15.80
2018-02-09T02:36:02.483Z,16.58
2018-02-09T02:38:33.487Z,16.67
2018-02-09T02:41:04.391Z,16.37
2018-02-09T02:43:35.901Z,15.52
2018-02-09T02:46:06.648Z,16.80
2018-02-09T02:48:37.581Z,14.82
2018-02-09T02:51:08.963Z,14.20
2018-02-09T02:53:39.771Z,15.68
2018-02-09T02:56:10.490Z,14.93
2018-02-09T02:58:41.403Z,15.82
2018-02-09T03:01:13.499Z,16.50
2018-02-09T03:03:44.961Z,14.98
2018-02-09T03:06:16.885Z,15.48
2018-02-09T03:08:47.559Z,14.77
2018-02-09T03:11:19.315Z,15.20
2018-02-09T03:13:50.835Z,15.55
2018-02-09T03:16:21.738Z,15.10
2018-02-09T03:18:53.658Z,15.77
2018-02-09T03:21:24.141Z,16.23
2018-02-09T03:23:55.459Z,16.10
2018-02-09T03:26:26.304Z,16.27
2018-02-09T03:28:56.958Z,16.10
2018-02-09T03:31:28.456Z,17.37
2018-02-09T03:33:59.008Z,17.12
2018-02-09T03:36:29.757Z,17.25
2018-02-09T03:39:00.624Z,17.15
2018-02-09T03:41:31.610Z,17.12
2018-02-09T03:44:02.205Z,16.92
2018-02-09T03:46:34.670Z,15.77
2018-02-09T03:49:07.243Z,15.88
2018-02-09T03:51:38.241Z,16.98
2018-02-09T03:54:08.697Z,17.65
2018-02-09T03:56:39.967Z,19.83
2018-02-09T03:59:11.057Z,19.45
2018-02-09T04:01:41.569Z,18.40
2018-02-09T04:04:12.243Z,19.00
2018-02-09T04:06:43.575Z,17.65
2018-02-09T04:09:15.336Z,18.80
2018-02-09T04:11:47.409Z,18.73
2018-02-09T04:14:18.732Z,19.17
2018-02-09T04:16:49.181Z,18.48
2018-02-09T04:19:20.839Z,18.45
2018-02-09T04:21:51.640Z,17.05
2018-02-09T04:24:22.812Z,18.17
2018-02-09T04:26:54.220Z,18.30
2018-02-09T04:29:24.759Z,19.27
2018-02-09T04:31:55.467Z,18.87
2018-02-09T04:34:26.715Z,17.05
2018-02-09T04:36:57.454Z,18.87
2018-02-09T04:39:28.965Z,18.87
2018-02-09T04:41:59.936Z,18.92
2018-02-09T04:44:30.556Z,19.02
2018-02-09T04:47:01.017Z,19.20
2018-02-09T04:49:32.231Z,19.92
2018-02-09T04:52:03.749Z,19.12
2018-02-09T04:54:34.789Z,17.77
2018-02-09T04:57:06.921Z,19.00
2018-02-09T04:59:37.763Z,19.02
2018-02-09T05:02:09.196Z,19.92
2018-02-09T05:04:40.050Z,20.48
2018-02-09T05:07:11.873Z,19.67
2018-02-09T05:09:43.031Z,19.62
2018-02-09T05:12:13.815Z,20.35
2018-02-09T05:14:44.420Z,18.95
2018-02-09T05:17:16.594Z,21.23
2018-02-09T05:19:47.619Z,20.35
2018-02-09T05:22:18.422Z,22.02
2018-02-09T05:24:49.721Z,21.10
2018-02-09T05:27:20.194Z,22.35
2018-02-09T05:29:51.096Z,22.10
2018-02-09T05:32:22.884Z,22.90
2018-02-09T05:34:55.178Z,22.23
2018-02-09T05:37:26.825Z,22.65
2018-02-09T05:39:58.056Z,24.02
2018-02-09T05:42:28.836Z,25.50
2018-02-09T05:44:59.685Z,24.23
2018-02-09T05:47:30.915Z,24.87
2018-02-09T05:50:03.158Z,24.35
2018-02-09T05:52:34.174Z,23.83
2018-02-09T05:55:05.244Z,30.45
2018-02-09T05:57:37.512Z,27.15
2018-02-09T06:00:08.831Z,27.42
2018-02-09T06:02:39.803Z,26.50
2018-02-09T06:05:10.529Z,25.73
2018-02-09T06:07:41.147Z,25.48
2018-02-09T06:10:11.621Z,25.70
2018-02-09T06:12:42.662Z,26.23
2018-02-09T06:15:13.850Z,24.48
2018-02-09T06:17:49.597Z,24.90
2018-02-09T06:20:21.103Z,25.45
2018-02-09T06:22:54.455Z,26.00
2018-02-09T06:25:27.501Z,25.05
2018-02-09T06:28:00.775Z,21.80
2018-02-09T06:30:33.530Z,23.98
2018-02-09T06:33:08.869Z,25.77
2018-02-09T06:35:40.328Z,26.60
2018-02-09T06:38:12.136Z,27.13
2018-02-09T06:40:43.752Z,31.45
2018-02-09T06:43:15.430Z,28.83
2018-02-09T06:45:46.109Z,34.33
2018-02-09T06:48:17.564Z,30.35
2018-02-09T06:50:48.592Z,28.55
2018-02-09T06:53:20.174Z,27.45
2018-02-09T06:55:50.855Z,27.73
2018-02-09T06:58:21.536Z,30.33
2018-02-09T07:00:52.500Z,27.92
2018-02-09T07:03:23.147Z,28.15
2018-02-09T07:05:54.348Z,28.52
2018-02-09T07:08:27.052Z,31.58
2018-02-09T07:10:59.853Z,36.03
2018-02-09T07:13:39.097Z,32.65
2018-02-09T07:16:12.487Z,31.10
2018-02-09T07:18:43.643Z,30.52
2018-02-09T07:21:14.538Z,39.38
2018-02-09T07:23:47.186Z,32.83
2018-02-09T07:26:19.019Z,31.42
2018-02-09T07:28:49.695Z,32.88
2018-02-09T07:31:21.738Z,31.55
2018-02-09T07:33:59.154Z,30.55
2018-02-09T07:36:30.563Z,39.45
2018-02-09T07:39:01.180Z,33.80
2018-02-09T07:44:20.926Z,35.20
2018-02-09T07:46:52.008Z,34.72
2018-02-09T07:49:47.328Z,34.10
2018-02-09T07:52:18.594Z,32.42
2018-02-09T07:54:50.486Z,34.35
2018-02-09T07:57:22.384Z,32.72
2018-02-09T07:59:53.582Z,33.20
2018-02-09T08:02:30.120Z,34.08
2018-02-09T08:05:01.358Z,31.92
2018-02-09T08:07:32.040Z,31.67
2018-02-09T08:10:08.370Z,31.17
2018-02-09T08:12:44.140Z,31.02
2018-02-09T08:15:19.431Z,32.42
2018-02-09T08:17:50.274Z,43.33
2018-02-09T08:20:21.725Z,34.20
2018-02-09T08:23:06.330Z,33.10
2018-02-09T08:25:40.881Z,44.80
2018-02-09T08:28:12.341Z,34.28
2018-02-09T08:30:43.679Z,32.13
2018-02-09T08:33:14.581Z,32.63
2018-02-09T08:36:06.396Z,42.75
2018-02-09T08:38:39.928Z,43.15
2018-02-09T08:41:20.926Z,34.75
2018-02-09T08:43:54.408Z,32.58
2018-02-09T08:46:28.560Z,30.58
2018-02-09T08:49:12.652Z,29.40
2018-02-09T08:51:50.361Z,28.70
2018-02-09T08:54:26.447Z,30.42
2018-02-09T08:56:58.604Z,39.92
2018-02-09T08:59:33.306Z,33.03
2018-02-09T09:02:08.159Z,31.40
2018-02-09T09:04:39.442Z,42.42
2018-02-09T09:07:13.024Z,31.83
2018-02-09T09:11:18.515Z,31.20
2018-02-09T09:13:51.104Z,28.70
2018-02-09T09:16:24.399Z,30.50
2018-02-09T09:18:56.763Z,28.25
2018-02-09T09:21:30.110Z,26.70
2018-02-09T09:24:01.767Z,27.60
2018-02-09T09:26:46.568Z,28.10
2018-02-09T09:29:18.887Z,26.33
2018-02-09T09:31:51.339Z,29.05
2018-02-09T09:34:28.112Z,29.48
2018-02-09T09:37:01.819Z,27.20
2018-02-09T09:39:35.566Z,27.27
2018-02-09T09:42:11.049Z,26.60
2018-02-09T09:44:42.020Z,27.62
2018-02-09T09:47:49.561Z,26.87
2018-02-09T09:50:25.415Z,26.70
2018-02-09T09:53:01.662Z,24.23
2018-02-09T09:55:51.012Z,26.27
2018-02-09T09:58:26.423Z,26.27
2018-02-09T10:01:04.538Z,27.33
2018-02-09T10:03:52.354Z,29.02
2018-02-09T10:09:48.293Z,27.65
2018-02-09T10:15:24.611Z,25.35
2018-02-09T10:17:55.585Z,27.98
2018-02-09T10:20:39.783Z,24.52
2018-02-09T10:26:21.822Z,27.17
2018-02-09T10:28:58.353Z,27.40
2018-02-09T10:31:32.437Z,29.35
2018-02-09T10:34:19.789Z,27.87
2018-02-09T10:36:55.928Z,27.08
2018-02-09T10:42:28.080Z,27.55
2018-02-09T10:45:09.958Z,28.02
2018-02-09T10:47:44.794Z,27.83
2018-02-09T10:50:22.213Z,26.73
2018-02-09T10:53:06.606Z,26.73
2018-02-09T10:55:39.925Z,25.35
2018-02-09T10:58:12.717Z,24.33
2018-02-09T11:04:01.554Z,24.63
2018-02-09T11:06:33.172Z,22.62
2018-02-09T11:09:06.325Z,26.12
2018-02-09T11:11:39.957Z,25.15
2018-02-09T11:14:12.468Z,25.40
2018-02-09T11:16:44.563Z,24.33
2018-02-09T11:19:17.021Z,21.83
2018-02-09T11:21:48.066Z,23.90
2018-02-09T11:27:31.491Z,21.35
2018-02-09T11:30:08.253Z,22.02
2018-02-09T11:32:39.765Z,22.77
2018-02-09T11:35:12.832Z,24.02
2018-02-09T11:37:48.094Z,23.58
2018-02-09T11:40:19.940Z,22.62
2018-02-09T11:42:53.504Z,23.10
2018-02-09T11:45:26.743Z,21.20
2018-02-09T11:47:58.649Z,22.60
2018-02-09T11:50:31.296Z,20.90
2018-02-09T11:53:21.131Z,25.30
2018-02-09T11:59:46.127Z,23.05
2018-02-09T12:02:31.835Z,22.73
2018-02-09T12:11:09.927Z,28.12
2018-02-09T12:13:46.499Z,21.98
2018-02-09T12:16:42.598Z,22.80
2018-02-09T12:19:30.195Z,18.45
2018-02-09T12:22:17.319Z,22.40
2018-02-09T12:24:53.374Z,18.95
2018-02-09T12:27:55.478Z,18.23
2018-02-09T12:30:27.851Z,17.08
2018-02-09T12:33:04.360Z,17.20
2018-02-09T12:35:35.785Z,15.82
2018-02-09T12:38:10.366Z,17.40
2018-02-09T12:40:41.483Z,17.25
2018-02-09T12:43:12.385Z,16.80
2018-02-09T12:45:43.470Z,15.93
2018-02-09T12:48:17.463Z,21.75
2018-02-09T12:50:49.388Z,18.48
2018-02-09T12:53:20.182Z,18.00
2018-02-09T12:55:51.652Z,16.42
2018-02-09T12:58:23.408Z,16.00
2018-02-09T13:01:00.105Z,15.40
2018-02-09T13:03:35.549Z,16.23
2018-02-09T13:06:06.112Z,17.27
2018-02-09T13:08:38.032Z,15.65
2018-02-09T13:11:09.460Z,14.77
2018-02-09T13:13:40.024Z,15.23
2018-02-09T13:16:11.892Z,15.23
2018-02-09T13:18:50.077Z,15.18
2018-02-09T13:21:20.944Z,14.75
2018-02-09T13:24:29.870Z,15.27
2018-02-09T13:27:06.671Z,12.95
2018-02-09T13:29:38.263Z,13.88
2018-02-09T13:32:10.229Z,12.90
2018-02-09T13:34:40.961Z,12.70
2018-02-09T13:37:50.944Z,13.98
2018-02-09T13:40:23.381Z,12.50
2018-02-09T13:42:54.314Z,12.93
2018-02-09T13:45:26.816Z,10.63
2018-02-09T13:48:00.159Z,12.60
2018-02-09T13:50:36.322Z,11.60
2018-02-09T13:53:08.389Z,11.82
2018-02-09T13:55:39.869Z,10.75
2018-02-09T13:58:12.650Z,12.23
2018-02-09T14:00:43.658Z,10.77
2018-02-09T14:03:16.332Z,10.95
2018-02-09T14:05:47.994Z,11.35
2018-02-09T14:08:22.565Z,10.88
2018-02-09T14:10:54.358Z,10.10
2018-02-09T14:13:25.756Z,12.32
2018-02-09T14:15:59.896Z,11.32
2018-02-09T14:18:35.442Z,11.32
2018-02-09T14:21:09.525Z,11.77
2018-02-09T14:23:41.535Z,12.32
2018-02-09T14:26:13.164Z,10.73
2018-02-09T14:28:44.243Z,12.73
2018-02-09T14:31:35.234Z,12.32
2018-02-09T14:34:05.975Z,11.55
2018-02-09T14:36:40.681Z,11.70
2018-02-09T14:39:16.041Z,13.77
2018-02-09T14:42:12.758Z,11.90
2018-02-09T14:44:48.859Z,12.48
2018-02-09T14:47:19.532Z,12.88
2018-02-09T14:49:51.865Z,12.68
2018-02-09T14:52:26.841Z,12.95
2018-02-09T14:54:58.022Z,13.90
2018-02-09T14:57:29.138Z,13.10
2018-02-09T14:59:59.732Z,13.07
2018-02-09T15:02:48.653Z,12.50
2018-02-09T15:05:20.619Z,11.93
2018-02-09T15:07:52.072Z,12.10
2018-02-09T15:10:22.762Z,12.50
2018-02-09T15:12:54.935Z,11.07
2018-02-09T15:15:31.611Z,12.90
2018-02-09T15:18:02.538Z,12.48
2018-02-09T15:20:37.892Z,12.50
2018-02-09T15:23:32.740Z,12.13
2018-02-09T15:26:10.046Z,12.15
2018-02-09T15:28:40.808Z,12.73
2018-02-09T15:31:12.370Z,12.88
2018-02-09T15:33:46.487Z,13.00
2018-02-09T15:36:17.043Z,11.82
2018-02-09T15:38:53.051Z,13.10
2018-02-09T15:41:26.324Z,12.07
2018-02-09T15:43:58.793Z,12.45
2018-02-09T15:46:30.923Z,12.32
2018-02-09T15:49:14.375Z,12.50
2018-02-09T15:52:01.105Z,13.05
2018-02-09T15:54:32.500Z,12.57
2018-02-09T15:57:06.077Z,14.98
2018-02-09T15:59:40.433Z,13.98
2018-02-09T16:02:10.926Z,13.30
2018-02-09T16:04:44.149Z,12.98
2018-02-09T16:07:17.071Z,11.70
2018-02-09T16:09:49.468Z,11.25
2018-02-09T16:12:22.043Z,10.23
2018-02-09T16:14:54.104Z,11.98
2018-02-09T16:17:40.563Z,11.60
2018-02-09T16:20:12.920Z,10.43
2018-02-09T16:22:46.057Z,11.15
2018-02-09T16:25:22.212Z,11.70
2018-02-09T16:27:54.078Z,10.07
2018-02-09T16:30:27.090Z,10.98
2018-02-09T16:33:03.448Z,11.55
2018-02-09T16:35:34.872Z,11.02
2018-02-09T16:38:08.930Z,11.20
2018-02-09T16:40:40.056Z,12.05
2018-02-09T16:43:29.907Z,10.32
2018-02-09T16:46:14.815Z,10.45
2018-02-09T16:51:49.076Z,10.70
2018-02-09T16:54:25.811Z,9.48
2018-02-09T16:57:01.900Z,10.18
2018-02-09T17:02:40.949Z,9.90
2018-02-09T17:05:29.778Z,10.30
2018-02-09T17:08:00.483Z,9.32
2018-02-09T17:10:31.153Z,10.35
2018-02-09T17:13:05.541Z,10.80
2018-02-09T17:15:49.402Z,9.70
2018-02-09T17:18:47.858Z,10.00
2018-02-09T17:24:10.235Z,9.40
2018-02-09T17:26:44.962Z,10.52
2018-02-09T17:29:16.245Z,9.32
2018-02-09T17:31:50.666Z,9.05
2018-02-09T17:34:50.131Z,10.30
2018-02-09T17:37:23.181Z,11.85
2018-02-09T17:42:45.216Z,11.18
2018-02-09T17:45:18.247Z,9.65
2018-02-09T17:47:48.706Z,9.00
2018-02-09T17:53:28.362Z,9.48
2018-02-09T17:56:01.395Z,9.98
2018-02-09T17:58:32.573Z,11.05
2018-02-09T18:01:03.353Z,10.35
2018-02-09T18:03:48.012Z,10.05
2018-02-09T18:06:31.828Z,9.23
2018-02-09T18:17:39.870Z,9.32
2018-02-09T18:20:28.641Z,9.10
2018-02-09T18:23:24.535Z,10.25
2018-02-09T18:28:42.392Z,9.82
2018-02-09T18:31:13.215Z,10.13
2018-02-09T18:33:45.304Z,10.88
2018-02-09T18:36:15.904Z,9.82
2018-02-09T18:38:46.334Z,10.48
2018-02-09T18:41:33.481Z,11.12
2018-02-09T18:44:05.070Z,10.82
2018-02-09T18:46:35.623Z,11.73
2018-02-09T18:49:06.218Z,10.93
2018-02-09T18:51:39.049Z,10.07
2018-02-09T18:54:26.347Z,11.10
2018-02-09T18:56:58.408Z,10.98
2018-02-09T18:59:30.008Z,11.52
2018-02-09T19:04:58.899Z,11.35
2018-02-09T19:07:29.779Z,11.27
2018-02-09T19:10:02.913Z,10.35
2018-02-09T19:12:35.645Z,12.80
2018-02-09T19:15:19.451Z,12.15
2018-02-09T19:17:50.013Z,12.30
2018-02-09T19:20:21.323Z,13.18
2018-02-09T19:22:53.383Z,13.93
2018-02-09T19:25:24.413Z,12.10
2018-02-09T19:28:00.486Z,13.43
2018-02-09T19:30:34.842Z,13.90
2018-02-09T19:33:07.587Z,13.07
2018-02-09T19:35:51.456Z,13.25
2018-02-09T19:38:43.812Z,12.45
2018-02-09T19:41:15.950Z,13.10
2018-02-09T19:43:47.032Z,13.27
2018-02-09T19:46:17.518Z,13.25
2018-02-09T19:48:48.059Z,13.98
2018-02-09T19:51:26.811Z,15.23
2018-02-09T19:53:57.541Z,14.10
2018-02-09T19:56:30.564Z,13.35
2018-02-09T19:59:02.373Z,13.62
2018-02-09T20:04:30.498Z,14.50
2018-02-09T20:07:01.133Z,13.00
2018-02-09T20:09:31.823Z,13.15
2018-02-09T20:12:02.415Z,12.93
2018-02-09T20:14:33.415Z,11.55
2018-02-09T20:23:06.337Z,14.02
2018-02-09T20:25:43.777Z,11.90
2018-02-09T20:28:14.369Z,13.07
2018-02-09T20:30:58.509Z,12.37
2018-02-09T20:37:18.318Z,11.90
2018-02-09T20:40:01.939Z,12.75
2018-02-09T20:42:34.629Z,13.23
2018-02-09T20:45:09.534Z,12.57
2018-02-09T20:47:41.730Z,12.70
2018-02-09T20:50:17.250Z,12.90
2018-02-09T20:52:48.099Z,12.93
2018-02-09T20:55:19.472Z,13.85
2018-02-09T21:01:14.158Z,12.40
2018-02-09T21:03:46.896Z,14.27
2018-02-09T21:06:18.785Z,12.65
2018-02-09T21:08:52.280Z,13.25
2018-02-09T21:11:23.930Z,13.27
2018-02-09T21:13:54.770Z,12.48
2018-02-09T21:19:39.834Z,12.20
2018-02-09T21:22:11.518Z,12.82
2018-02-09T21:24:44.639Z,14.45
2018-02-09T21:27:29.597Z,12.93
2018-02-09T21:46:28.566Z,13.13
2018-02-09T21:49:14.990Z,13.73
2018-02-09T21:57:50.351Z,12.30
2018-02-09T22:00:21.003Z,13.32
2018-02-09T22:02:52.294Z,13.55
2018-02-09T22:05:23.405Z,13.45
2018-02-09T22:07:53.988Z,12.73
2018-02-09T22:10:24.607Z,13.52
2018-02-09T22:13:00.373Z,13.70
2018-02-09T22:15:45.058Z,13.45
2018-02-09T22:21:11.267Z,12.98
2018-02-09T22:23:58.164Z,14.02
2018-02-09T22:26:32.502Z,12.15
2018-02-09T22:29:03.302Z,12.75
2018-02-09T22:31:36.021Z,12.18
2018-02-09T22:34:06.963Z,13.50
2018-02-09T22:36:37.862Z,12.20
2018-02-09T22:39:09.637Z,13.13
2018-02-09T22:41:40.457Z,13.45
2018-02-09T22:44:12.332Z,13.18
2018-02-09T22:46:43.716Z,13.48
2018-02-09T22:49:17.400Z,13.15
2018-02-09T22:51:48.198Z,13.27
2018-02-09T22:54:19.564Z,13.05
2018-02-09T22:57:16.312Z,11.75
2018-02-09T22:59:47.013Z,13.23
2018-02-09T23:05:18.503Z,13.68
2018-02-09T23:07:51.571Z,12.75
2018-02-09T23:10:25.017Z,13.85
2018-02-09T23:13:02.856Z,12.73
2018-02-09T23:15:35.037Z,13.23
2018-02-09T23:18:05.608Z,12.13
2018-02-09T23:20:41.550Z,13.25
2018-02-09T23:23:14.830Z,13.82
2018-02-09T23:25:46.597Z,13.62
2018-02-09T23:28:19.112Z,12.48
2018-02-09T23:30:51.338Z,12.40
2018-02-09T23:53:42.095Z,14.07
2018-02-09T23:56:11.932Z,13.80
2018-02-09T23:58:42.083Z,12.88
